Latest Coastal Weather Observations for Laverton

IDV60701

Issued at 4:51 pm EST Wednesday 29 July 2015 (issued every 10 minutes, with the page automatically refreshed every 10 minutes)

About coastal observations | Map of coastal stations | Coastal observations for VIC | Marine services | Other Formats
Station Details ID: 087031 Name: LAVERTON RAAF Lat: -37.86 Lon: 144.76 Height: 20.1 m
Data from the previous 72 hours. | See also: Recent months at Laverton
Date/Time
EST
Temp

°C
Wind Pressure Rain
since 9am
mm
Weather Cloud Vis
km
Sea
Height
m
Swell
Dir
 
Speed
knots
Gust
knots
hPa Trend Height
m
Period
s
Dir
29/04:30pm 11.8 N 9 13 1028.0 - 0.0 - Partly cloudy 10 - - - -
29/04:00pm 12.1 N 9 15 1027.9 - 0.0 - Partly cloudy 10 - - - -
29/03:30pm 12.8 N 10 13 1028.3 - 0.0 - Partly cloudy 10 - - - -
29/03:00pm 12.7 N 10 13 1028.5 - 0.0 - Cloudy 10 - - - -
29/02:30pm 13.1 NNW 10 14 1028.9 - 0.0 - Partly cloudy 10 - - - -
29/02:00pm 13.2 N 10 15 1029.1 - 0.0 - Partly cloudy 10 - - - -
29/01:30pm 13.8 NNW 10 14 1029.9 - 0.0 - Partly cloudy 10 - - - -
29/01:00pm 13.5 NNW 12 16 1030.0 - 0.0 - Partly cloudy 10 - - - -
29/12:30pm 13.0 NNE 8 13 1030.6 - 0.0 - Partly cloudy 10 - - - -
29/12:00pm 13.1 NNW 10 14 1031.6 - 0.0 - Mostly clear 10 - - - -
29/11:30am 12.8 NW 10 13 1032.3 - 0.0 - Partly cloudy 10 - - - -
29/11:00am 12.7 NW 9 11 1032.4 - 0.0 - Partly cloudy 10 - - - -
29/10:30am 12.7 NNW 7 9 1032.8 - 0.0 - - 10 - - - -
29/10:00am 11.6 N 7 9 1032.8 - 0.0 - - 10 - - - -
29/09:30am 10.1 NNW 5 8 1033.1 - 0.0 - - 10 - - - -
29/09:00am 9.4 N 6 8 1033.2 - 0.0 - - 10 - - - -
29/08:30am 8.7 N 5 7 1033.3 - 0.0 - - 10 - - - -
29/08:00am 8.3 N 5 7 1033.1 - 0.0 - - 10 - - - -
29/07:30am 8.7 N 4 5 1032.8 - 0.0 - Partly cloudy 10 - - - -
29/07:00am 9.2 NNW 5 6 1032.6 - 0.0 - Cloudy 10 - - - -
29/06:30am 9.4 NNW 5 6 1032.7 - 0.0 - Cloudy 10 - - - -
29/06:00am 8.6 WNW 6 7 1032.7 - 0.0 - Cloudy 10 - - - -
29/05:30am 8.6 WNW 5 6 1032.5 - 0.0 - Cloudy 10 - - - -
29/05:00am 8.7 WNW 3 4 1032.3 - 0.0 - Cloudy 10 - - - -
29/04:30am 8.9 WNW 4 5 1032.4 - 0.0 - Cloudy 10 - - - -
29/04:00am 9.0 WNW 4 6 1032.7 - 0.0 - Cloudy 10 - - - -
29/03:30am 8.9 WNW 4 5 1032.6 - 0.0 - Cloudy 10 - - - -
29/03:00am 8.8 WNW 4 5 1032.9 - 0.0 - Cloudy 10 - - - -
29/02:30am 8.8 WNW 5 5 1033.2 - 0.0 - Cloudy 10 - - - -
29/02:00am 8.9 WNW 4 6 1033.4 - 0.0 - Cloudy 10 - - - -
29/01:30am 9.1 WNW 5 6 1033.2 - 0.0 - Cloudy 10 - - - -
29/01:00am 9.2 WNW 5 7 1033.0 - 0.0 - Cloudy 10 - - - -
29/12:30am 9.0 WNW 5 6 1033.5 - 0.0 - Partly cloudy 10 - - - -
29/12:00am 9.1 WNW 5 6 1033.9 - 0.0 - Mostly cloudy 10 - - - -
 
Date/Time
EST
Temp

°C
Wind Pressure Rain
since 9am
mm
Weather Cloud Vis
km
Sea
Height
m
Swell
Dir
 
Speed
knots
Gust
knots
hPa Trend Height
m
Period
s
Dir
28/11:30pm 9.2 WNW 3 5 1033.9 - 0.0 - Partly cloudy 10 - - - -
28/11:00pm 9.7 WNW 5 7 1034.0 - 0.0 - Partly cloudy 10 - - - -
28/10:30pm 10.0 W 6 8 1034.1 - 0.0 - Cloudy 10 - - - -
28/10:00pm 10.4 W 6 8 1034.5 - 0.0 - Partly cloudy 10 - - - -
28/09:30pm 10.4 WSW 4 8 1034.4 - 0.0 - Partly cloudy 10 - - - -
28/09:00pm 10.1 W 3 4 1034.4 - 0.0 - Cloudy 10 - - - -
28/08:30pm 10.3 W 4 5 1034.1 - 0.0 - Cloudy 10 - - - -
28/08:00pm 10.2 W 4 5 1034.1 - 0.0 - Cloudy 10 - - - -
28/07:30pm 11.0 W 3 4 1033.9 - 0.0 - Cloudy 10 - - - -
28/07:00pm 11.9 W 4 6 1034.1 - 0.0 - Cloudy 10 - - - -
28/06:30pm 12.0 WSW 5 7 1033.8 - 0.0 - Cloudy 10 - - - -
28/06:00pm 11.9 SW 5 5 1033.6 - 0.0 - Cloudy 10 - - - -
28/05:30pm 12.0 SW 6 7 1033.5 - 0.0 - Cloudy 10 - - - -
28/05:00pm 12.2 SW 8 11 1033.4 - 0.0 - Partly cloudy 10 - - - -
28/04:30pm 12.1 SSE 6 8 1033.2 - 0.0 - Cloudy 10 - - - -
28/04:00pm 13.2 S 7 12 1033.3 - 0.0 - Partly cloudy 10 - - - -
28/03:30pm 14.0 SW 9 13 1033.2 - 0.0 - Partly cloudy 10 - - - -
28/03:00pm 13.7 SW 6 11 1033.1 - 0.0 - Cloudy 10 - - - -
28/02:30pm 13.3 SSW 8 11 1033.2 - 0.0 - Partly cloudy 10 - - - -
28/02:00pm 13.8 S 9 14 1033.3 - 0.0 - Partly cloudy 10 - - - -
28/01:30pm 14.2 WSW 9 12 1033.6 - 0.0 - Partly cloudy 10 - - - -
28/01:00pm 13.9 WSW 10 15 1033.8 - 0.0 - Partly cloudy 10 - - - -
28/12:30pm 14.0 WSW 11 14 1034.1 - 0.0 - Partly cloudy 10 - - - -
28/12:00pm 13.8 W 9 12 1034.5 - 0.0 - Mostly cloudy 10 - - - -
28/11:30am 13.3 W 10 13 1035.1 - 0.0 - Partly cloudy 10 - - - -
28/11:00am 12.7 WSW 10 13 1035.4 - 0.0 - Partly cloudy 10 - - - -
28/10:30am 12.3 WNW 7 10 1035.5 - 0.0 - Partly cloudy 10 - - - -
28/10:00am 11.2 WNW 9 12 1035.4 - 0.0 - - 10 - - - -
28/09:30am 10.0 WNW 7 10 1035.3 - 0.0 - - 10 - - - -
28/09:00am 8.7 NW 6 8 1035.2 - 0.0 - - 10 - - - -
28/08:30am 6.8 NW 5 6 1034.9 - 0.0 - - 10 - - - -
28/08:00am 6.1 WNW 5 7 1034.6 - 0.0 - - 10 - - - -
28/07:30am 5.8 NW 6 7 1034.2 - 0.0 - Partly cloudy 10 - - - -
28/07:00am 6.6 NW 3 4 1033.9 - 0.0 - Partly cloudy 10 - - - -
28/06:30am 6.4 NW 5 6 1033.5 - 0.0 - Partly cloudy 10 - - - -
28/06:00am 6.5 NW 5 6 1033.0 - 0.0 - Cloudy 10 - - - -
28/05:30am 6.8 NW 6 7 1032.8 - 0.0 - Partly cloudy 10 - - - -
28/05:00am 6.1 NW 5 7 1032.5 - 0.0 - Cloudy 10 - - - -
28/04:30am 5.7 WNW 5 6 1032.3 - 0.0 - Partly cloudy 10 - - - -
28/04:00am 6.4 WNW 7 9 1032.1 - 0.0 - Partly cloudy 10 - - - -
28/03:30am 5.8 WNW 7 9 1032.1 - 0.0 - Partly cloudy 10 - - - -
28/03:00am 5.9 NW 7 9 1032.1 - 0.0 - Mostly cloudy 10 - - - -
28/02:30am 5.4 NW 6 7 1032.0 - 0.0 - Partly cloudy 10 - - - -
28/02:00am 5.7 NW 7 8 1031.7 - 0.0 - Partly cloudy 10 - - - -
28/01:30am 5.8 WNW 7 8 1031.5 - 0.0 - Partly cloudy 10 - - - -
28/01:00am 6.4 WNW 8 9 1031.4 - 0.0 - Partly cloudy 10 - - - -
28/12:30am 5.7 WNW 7 8 1031.5 - 0.0 - Partly cloudy 10 - - - -
28/12:00am 5.4 NW 7 9 1031.5 - 0.0 - Partly cloudy 10 - - - -
 
Date/Time
EST
Temp

°C
Wind Pressure Rain
since 9am
mm
Weather Cloud Vis
km
Sea
Height
m
Swell
Dir
 
Speed
knots
Gust
knots
hPa Trend Height
m
Period
s
Dir
27/11:30pm 5.3 NW 5 6 1031.4 - 0.0 - Partly cloudy 10 - - - -
27/11:00pm 5.5 NW 5 6 1031.4 - 0.0 - - 10 - - - -
27/10:30pm 5.7 NW 6 7 1031.5 - 0.0 - - 10 - - - -
27/10:00pm 6.3 NW 7 9 1031.5 - 0.0 - Partly cloudy 10 - - - -
27/09:30pm 6.3 NW 5 7 1031.5 - 0.0 - Partly cloudy 10 - - - -
27/09:00pm 6.6 NW 6 8 1031.3 - 0.0 - Cloudy 10 - - - -
27/08:30pm 6.4 NW 7 9 1031.2 - 0.0 - Partly cloudy 10 - - - -
27/08:00pm 5.8 NW 6 7 1031.2 - 0.0 - Partly cloudy 10 - - - -
27/07:30pm 6.4 NW 5 6 1031.1 - 0.0 - - 10 - - - -
27/07:00pm 7.8 W 6 8 1030.7 - 0.0 - - 10 - - - -
27/06:30pm 9.6 W 7 9 1030.4 - 0.0 - Partly cloudy 10 - - - -
27/06:00pm 10.5 W 8 13 1030.1 - 0.0 - Cloudy 10 - - - -
27/05:30pm 11.0 W 11 16 1029.8 - 0.0 - Partly cloudy 10 - - - -
27/05:00pm 11.3 WSW 12 17 1029.5 - 0.0 - Partly cloudy 10 - - - -
27/04:30pm 12.1 W 16 24 1029.1 - 0.0 - Partly cloudy 10 - - - -
27/04:00pm 12.9 WSW 13 21 1028.8 - 0.0 - Partly cloudy 10 - - - -
27/03:30pm 12.8 WSW 16 21 1028.6 - 0.0 - Partly cloudy 10 - - - -
27/03:00pm 12.9 W 15 22 1028.2 - 0.0 - Partly cloudy 10 - - - -
27/02:30pm 12.9 WSW 16 22 1028.1 - 0.0 - Partly cloudy 10 - - - -
27/02:00pm 13.0 W 16 23 1027.8 - 0.0 - Partly cloudy 10 - - - -
27/01:30pm 12.2 WSW 15 21 1027.9 - 0.0 - Partly cloudy 10 - - - -
27/01:00pm 12.0 WSW 15 21 1028.1 - 0.0 - Partly cloudy 10 - - - -
27/12:30pm 11.6 WSW 15 21 1028.4 - 0.0 - Partly cloudy 10 - - - -
27/12:07pm 11.8 WSW 17 27 1028.6 - 0.0 - Partly cloudy 10 - - - -
27/12:00pm 11.4 WSW 17 26 1028.7 - 0.0 - Mostly cloudy 10 - - - -
27/11:30am 11.4 WSW 17 23 1028.8 - 0.0 - Partly cloudy 10 - - - -
27/11:00am 11.0 WSW 15 23 1028.9 - 0.0 - Partly cloudy 10 - - - -
27/10:30am 10.7 WSW 13 19 1028.8 - 0.0 - - 10 - - - -
27/10:00am 9.7 W 10 15 1028.5 - 0.0 - - 10 - - - -
27/09:30am 8.5 WNW 9 12 1028.2 - 0.0 - - 10 - - - -
27/09:00am 7.1 WNW 9 13 1027.8 - 1.4 - Mostly clear 10 - - - -
27/08:30am 6.4 WNW 9 12 1027.3 - 1.4 - - 10 - - - -
27/08:00am 5.2 WNW 10 13 1026.8 - 1.4 - - 10 - - - -
27/07:30am 5.2 WNW 10 13 1026.6 - 1.4 - - 10 - - - -
27/07:00am 5.1 WNW 10 13 1026.1 - 1.4 - - 10 - - - -
27/06:30am 5.1 WNW 11 14 1025.7 - 1.4 - - 10 - - - -
27/06:00am 5.1 WNW 10 13 1025.4 - 1.4 - Mostly clear 10 - - - -
27/05:30am 5.2 WNW 11 15 1025.1 - 1.4 - Partly cloudy 10 - - - -
27/05:00am 5.2 W 10 14 1025.0 - 1.4 - Partly cloudy 10 - - - -
27/04:30am 4.9 WNW 11 14 1024.7 - 1.4 - Partly cloudy 10 - - - -
27/04:00am 4.1 WNW 9 12 1024.4 - 1.4 - Partly cloudy 10 - - - -
27/03:30am 4.2 WNW 10 12 1024.0 - 1.4 - - 10 - - - -
27/03:00am 4.2 NW 10 12 1023.9 - 1.4 - - 10 - - - -
27/02:30am 5.0 WNW 10 13 1023.8 - 1.4 - - 10 - - - -
27/02:00am 5.2 WNW 10 14 1023.5 - 1.4 - Partly cloudy 10 - - - -
27/01:30am 5.2 WNW 10 12 1023.2 - 1.4 - - 10 - - - -
27/01:00am 5.5 WNW 11 14 1023.2 - 1.4 - - 10 - - - -
27/12:30am 5.2 WNW 11 15 1022.8 - 1.4 - - 10 - - - -
27/12:00am 6.0 WNW 12 18 1022.5 - 1.4 - Partly cloudy 10 - - - -
 
Date/Time
EST
Temp

°C
Wind Pressure Rain
since 9am
mm
Weather Cloud Vis
km
Sea
Height
m
Swell
Dir
 
Speed
knots
Gust
knots
hPa Trend Height
m
Period
s
Dir
26/11:30pm 6.3 W 11 16 1022.5 - 1.4 - Partly cloudy 10 - - - -
26/11:00pm 6.2 W 12 16 1022.1 - 1.4 - Partly cloudy 10 - - - -
26/10:30pm 5.9 WNW 11 14 1021.8 - 1.4 - Partly cloudy 10 - - - -
26/10:00pm 5.6 WNW 9 13 1021.6 - 1.4 - - 10 - - - -
26/09:30pm 5.2 WNW 7 9 1021.2 - 1.4 - Partly cloudy 10 - - - -
26/09:00pm 5.5 WNW 8 10 1020.8 - 1.4 - Mostly clear 10 - - - -
26/08:30pm 6.4 WNW 10 13 1020.5 - 1.4 - Partly cloudy 10 - - - -
26/08:00pm 6.4 WNW 11 15 1020.0 - 1.4 - Partly cloudy 10 - - - -
26/07:30pm 6.4 WNW 11 14 1019.6 - 1.4 - - 10 - - - -
26/07:00pm 5.9 WNW 11 13 1019.0 - 1.4 - - 10 - - - -
26/06:30pm 6.1 NW 9 14 1018.4 - 1.4 - Partly cloudy 10 - - - -
26/06:00pm 6.4 WNW 10 14 1017.9 - 1.4 - - 10 - - - -
26/05:30pm 7.2 WNW 12 17 1017.4 - 1.4 - - 10 - - - -
26/05:00pm 7.5 W 15 20 1017.0 - 1.4 - Partly cloudy 10 - - - -

Other Formats:

Comma delimited format used in spreadsheet applications
http://www.bom.gov.au/fwo/IDV60701/IDV60701.94865.axf

JavaScript Object Notation format (JSON) in row-major order
http://www.bom.gov.au/fwo/IDV60701/IDV60701.94865.json